sensor_id;sensor_type;location;lat;lon;timestamp;P1;durP1;ratioP1;P2;durP2;ratioP2
10945;SDS011;5525;42.648;23.368;2022-09-24T00:00:48;3.72;;;3.38;;
10945;SDS011;5525;42.648;23.368;2022-09-24T00:03:18;3.42;;;3.03;;
10945;SDS011;5525;42.648;23.368;2022-09-24T00:05:46;4.72;;;3.38;;
10945;SDS011;5525;42.648;23.368;2022-09-24T00:08:21;4.50;;;3.28;;
10945;SDS011;5525;42.648;23.368;2022-09-24T00:10:49;4.28;;;3.20;;
10945;SDS011;5525;42.648;23.368;2022-09-24T00:13:18;4.05;;;3.55;;
10945;SDS011;5525;42.648;23.368;2022-09-24T00:15:47;5.82;;;3.45;;
10945;SDS011;5525;42.648;23.368;2022-09-24T00:18:20;5.07;;;3.40;;
10945;SDS011;5525;42.648;23.368;2022-09-24T00:20:48;3.50;;;3.17;;
10945;SDS011;5525;42.648;23.368;2022-09-24T00:23:15;5.65;;;3.60;;
10945;SDS011;5525;42.648;23.368;2022-09-24T00:25:43;3.80;;;3.30;;
10945;SDS011;5525;42.648;23.368;2022-09-24T00:28:30;4.15;;;3.05;;
10945;SDS011;5525;42.648;23.368;2022-09-24T00:30:59;3.97;;;3.53;;
10945;SDS011;5525;42.648;23.368;2022-09-24T00:33:31;4.55;;;4.00;;
10945;SDS011;5525;42.648;23.368;2022-09-24T00:35:59;3.95;;;3.50;;
10945;SDS011;5525;42.648;23.368;2022-09-24T00:38:30;3.90;;;3.30;;
10945;SDS011;5525;42.648;23.368;2022-09-24T00:40:59;3.72;;;3.33;;
10945;SDS011;5525;42.648;23.368;2022-09-24T00:43:32;4.28;;;3.42;;
10945;SDS011;5525;42.648;23.368;2022-09-24T00:46:06;3.35;;;3.00;;
10945;SDS011;5525;42.648;23.368;2022-09-24T00:48:40;4.25;;;3.05;;
10945;SDS011;5525;42.648;23.368;2022-09-24T00:51:08;3.85;;;3.10;;
10945;SDS011;5525;42.648;23.368;2022-09-24T00:53:38;3.70;;;3.20;;
10945;SDS011;5525;42.648;23.368;2022-09-24T00:56:07;3.22;;;2.92;;
10945;SDS011;5525;42.648;23.368;2022-09-24T00:58:41;4.72;;;3.60;;
10945;SDS011;5525;42.648;23.368;2022-09-24T01:01:10;5.53;;;3.58;;
10945;SDS011;5525;42.648;23.368;2022-09-24T01:03:37;4.38;;;3.47;;
10945;SDS011;5525;42.648;23.368;2022-09-24T01:06:07;4.05;;;3.17;;
10945;SDS011;5525;42.648;23.368;2022-09-24T01:08:34;4.90;;;3.50;;
10945;SDS011;5525;42.648;23.368;2022-09-24T01:11:06;4.95;;;3.53;;
10945;SDS011;5525;42.648;23.368;2022-09-24T01:13:57;4.70;;;3.60;;
10945;SDS011;5525;42.648;23.368;2022-09-24T01:16:39;4.47;;;3.58;;
10945;SDS011;5525;42.648;23.368;2022-09-24T01:19:19;4.15;;;3.40;;
10945;SDS011;5525;42.648;23.368;2022-09-24T01:22:11;6.72;;;3.95;;
10945;SDS011;5525;42.648;23.368;2022-09-24T01:24:51;4.68;;;3.35;;
10945;SDS011;5525;42.648;23.368;2022-09-24T01:27:29;3.95;;;3.42;;
10945;SDS011;5525;42.648;23.368;2022-09-24T01:30:12;5.60;;;3.75;;
10945;SDS011;5525;42.648;23.368;2022-09-24T01:32:41;6.45;;;3.50;;
10945;SDS011;5525;42.648;23.368;2022-09-24T01:35:15;4.47;;;3.67;;
10945;SDS011;5525;42.648;23.368;2022-09-24T01:37:47;4.43;;;3.60;;
10945;SDS011;5525;42.648;23.368;2022-09-24T01:40:19;4.53;;;3.53;;
10945;SDS011;5525;42.648;23.368;2022-09-24T01:42:51;5.18;;;3.75;;
10945;SDS011;5525;42.648;23.368;2022-09-24T01:45:22;5.75;;;3.70;;
10945;SDS011;5525;42.648;23.368;2022-09-24T01:47:51;5.80;;;4.10;;
10945;SDS011;5525;42.648;23.368;2022-09-24T01:50:18;3.90;;;3.47;;
10945;SDS011;5525;42.648;23.368;2022-09-24T01:52:47;5.72;;;3.58;;
10945;SDS011;5525;42.648;23.368;2022-09-24T01:55:19;4.78;;;3.67;;
10945;SDS011;5525;42.648;23.368;2022-09-24T01:57:51;5.70;;;3.85;;
10945;SDS011;5525;42.648;23.368;2022-09-24T02:00:26;5.13;;;3.67;;
10945;SDS011;5525;42.648;23.368;2022-09-24T02:02:55;5.78;;;4.00;;
10945;SDS011;5525;42.648;23.368;2022-09-24T02:05:28;5.50;;;4.15;;
10945;SDS011;5525;42.648;23.368;2022-09-24T02:08:00;4.72;;;3.78;;
10945;SDS011;5525;42.648;23.368;2022-09-24T02:10:33;5.85;;;4.50;;
10945;SDS011;5525;42.648;23.368;2022-09-24T02:13:07;5.55;;;4.38;;
10945;SDS011;5525;42.648;23.368;2022-09-24T02:18:13;5.10;;;3.65;;
10945;SDS011;5525;42.648;23.368;2022-09-24T02:20:43;6.68;;;4.40;;
10945;SDS011;5525;42.648;23.368;2022-09-24T02:23:10;6.78;;;4.00;;
10945;SDS011;5525;42.648;23.368;2022-09-24T02:25:41;5.75;;;4.10;;
10945;SDS011;5525;42.648;23.368;2022-09-24T02:28:15;5.97;;;4.10;;
10945;SDS011;5525;42.648;23.368;2022-09-24T02:30:45;6.25;;;4.38;;
10945;SDS011;5525;42.648;23.368;2022-09-24T02:33:16;6.40;;;4.47;;
10945;SDS011;5525;42.648;23.368;2022-09-24T02:36:03;4.78;;;4.07;;
10945;SDS011;5525;42.648;23.368;2022-09-24T02:38:31;6.03;;;4.47;;
10945;SDS011;5525;42.648;23.368;2022-09-24T02:40:58;6.50;;;4.22;;
10945;SDS011;5525;42.648;23.368;2022-09-24T02:43:25;6.53;;;4.50;;
10945;SDS011;5525;42.648;23.368;2022-09-24T02:45:54;5.93;;;4.47;;
10945;SDS011;5525;42.648;23.368;2022-09-24T02:48:22;6.32;;;4.55;;
10945;SDS011;5525;42.648;23.368;2022-09-24T02:50:49;6.05;;;4.80;;
10945;SDS011;5525;42.648;23.368;2022-09-24T02:53:16;6.13;;;4.78;;
10945;SDS011;5525;42.648;23.368;2022-09-24T02:55:45;5.38;;;4.45;;
10945;SDS011;5525;42.648;23.368;2022-09-24T02:58:13;5.30;;;4.00;;
10945;SDS011;5525;42.648;23.368;2022-09-24T03:00:40;5.35;;;4.38;;
10945;SDS011;5525;42.648;23.368;2022-09-24T03:03:14;6.50;;;4.53;;
10945;SDS011;5525;42.648;23.368;2022-09-24T03:05:42;5.50;;;4.47;;
10945;SDS011;5525;42.648;23.368;2022-09-24T03:08:10;5.63;;;4.95;;
10945;SDS011;5525;42.648;23.368;2022-09-24T03:10:40;7.45;;;5.35;;
10945;SDS011;5525;42.648;23.368;2022-09-24T03:13:07;7.70;;;4.97;;
10945;SDS011;5525;42.648;23.368;2022-09-24T03:15:38;7.68;;;5.35;;
10945;SDS011;5525;42.648;23.368;2022-09-24T03:18:05;6.97;;;5.10;;
10945;SDS011;5525;42.648;23.368;2022-09-24T03:20:35;8.82;;;5.43;;
10945;SDS011;5525;42.648;23.368;2022-09-24T03:23:02;6.75;;;4.95;;
10945;SDS011;5525;42.648;23.368;2022-09-24T03:25:29;9.88;;;5.63;;
10945;SDS011;5525;42.648;23.368;2022-09-24T03:27:57;7.57;;;5.57;;
10945;SDS011;5525;42.648;23.368;2022-09-24T03:30:24;7.65;;;5.22;;
10945;SDS011;5525;42.648;23.368;2022-09-24T03:33:08;8.88;;;4.93;;
10945;SDS011;5525;42.648;23.368;2022-09-24T03:35:41;8.23;;;5.40;;
10945;SDS011;5525;42.648;23.368;2022-09-24T03:38:15;7.75;;;4.65;;
10945;SDS011;5525;42.648;23.368;2022-09-24T03:40:52;6.65;;;4.78;;
10945;SDS011;5525;42.648;23.368;2022-09-24T03:43:25;6.95;;;5.43;;
10945;SDS011;5525;42.648;23.368;2022-09-24T03:45:58;7.47;;;5.93;;
10945;SDS011;5525;42.648;23.368;2022-09-24T03:48:31;11.93;;;5.70;;
10945;SDS011;5525;42.648;23.368;2022-09-24T03:51:03;6.22;;;5.07;;
10945;SDS011;5525;42.648;23.368;2022-09-24T03:53:34;7.38;;;5.30;;
10945;SDS011;5525;42.648;23.368;2022-09-24T03:56:03;7.63;;;5.80;;
10945;SDS011;5525;42.648;23.368;2022-09-24T03:58:31;6.82;;;5.65;;
10945;SDS011;5525;42.648;23.368;2022-09-24T04:01:03;6.55;;;5.60;;
10945;SDS011;5525;42.648;23.368;2022-09-24T04:03:32;8.18;;;6.15;;
10945;SDS011;5525;42.648;23.368;2022-09-24T04:06:06;8.57;;;6.22;;
10945;SDS011;5525;42.648;23.368;2022-09-24T04:08:37;7.45;;;5.88;;
10945;SDS011;5525;42.648;23.368;2022-09-24T04:11:04;8.02;;;5.85;;
10945;SDS011;5525;42.648;23.368;2022-09-24T04:13:31;9.18;;;5.40;;
10945;SDS011;5525;42.648;23.368;2022-09-24T04:16:02;6.38;;;5.35;;
10945;SDS011;5525;42.648;23.368;2022-09-24T04:18:30;7.63;;;5.47;;
10945;SDS011;5525;42.648;23.368;2022-09-24T04:20:59;7.28;;;5.50;;
10945;SDS011;5525;42.648;23.368;2022-09-24T04:23:31;7.30;;;5.75;;
10945;SDS011;5525;42.648;23.368;2022-09-24T04:26:00;7.65;;;5.78;;
10945;SDS011;5525;42.648;23.368;2022-09-24T04:28:31;10.00;;;6.60;;
10945;SDS011;5525;42.648;23.368;2022-09-24T04:30:58;8.95;;;5.40;;
10945;SDS011;5525;42.648;23.368;2022-09-24T04:33:26;7.40;;;5.72;;
10945;SDS011;5525;42.648;23.368;2022-09-24T04:36:01;9.93;;;5.78;;
10945;SDS011;5525;42.648;23.368;2022-09-24T04:38:32;6.90;;;5.80;;
10945;SDS011;5525;42.648;23.368;2022-09-24T04:41:04;6.70;;;6.00;;
10945;SDS011;5525;42.648;23.368;2022-09-24T04:43:35;6.95;;;5.47;;
10945;SDS011;5525;42.648;23.368;2022-09-24T04:46:05;9.32;;;6.22;;
10945;SDS011;5525;42.648;23.368;2022-09-24T04:48:34;6.97;;;5.63;;
10945;SDS011;5525;42.648;23.368;2022-09-24T04:51:03;19.10;;;11.70;;
10945;SDS011;5525;42.648;23.368;2022-09-24T04:53:32;9.60;;;6.82;;
10945;SDS011;5525;42.648;23.368;2022-09-24T04:56:01;6.65;;;5.63;;
10945;SDS011;5525;42.648;23.368;2022-09-24T04:58:29;8.95;;;6.68;;
10945;SDS011;5525;42.648;23.368;2022-09-24T05:01:00;8.32;;;6.30;;
10945;SDS011;5525;42.648;23.368;2022-09-24T05:06:01;6.55;;;5.43;;
10945;SDS011;5525;42.648;23.368;2022-09-24T05:08:29;8.27;;;6.28;;
10945;SDS011;5525;42.648;23.368;2022-09-24T05:10:57;7.15;;;6.28;;
10945;SDS011;5525;42.648;23.368;2022-09-24T05:13:27;9.13;;;7.40;;
10945;SDS011;5525;42.648;23.368;2022-09-24T05:15:54;8.93;;;6.47;;
10945;SDS011;5525;42.648;23.368;2022-09-24T05:18:21;15.43;;;7.10;;
10945;SDS011;5525;42.648;23.368;2022-09-24T05:20:48;12.02;;;7.00;;
10945;SDS011;5525;42.648;23.368;2022-09-24T05:23:16;11.05;;;8.10;;
10945;SDS011;5525;42.648;23.368;2022-09-24T05:25:43;8.38;;;7.13;;
10945;SDS011;5525;42.648;23.368;2022-09-24T05:28:30;9.98;;;7.75;;
10945;SDS011;5525;42.648;23.368;2022-09-24T05:30:59;11.80;;;7.85;;
10945;SDS011;5525;42.648;23.368;2022-09-24T05:33:27;9.85;;;7.70;;
10945;SDS011;5525;42.648;23.368;2022-09-24T05:35:55;8.80;;;7.50;;
10945;SDS011;5525;42.648;23.368;2022-09-24T05:38:22;9.43;;;6.85;;
10945;SDS011;5525;42.648;23.368;2022-09-24T05:40:51;15.95;;;8.77;;
10945;SDS011;5525;42.648;23.368;2022-09-24T05:43:19;10.38;;;7.45;;
10945;SDS011;5525;42.648;23.368;2022-09-24T05:45:50;10.00;;;7.80;;
10945;SDS011;5525;42.648;23.368;2022-09-24T05:48:19;14.45;;;7.80;;
10945;SDS011;5525;42.648;23.368;2022-09-24T05:50:48;8.60;;;7.40;;
10945;SDS011;5525;42.648;23.368;2022-09-24T05:53:19;10.10;;;7.35;;
10945;SDS011;5525;42.648;23.368;2022-09-24T05:55:48;7.60;;;6.57;;
10945;SDS011;5525;42.648;23.368;2022-09-24T05:58:18;10.85;;;9.20;;
10945;SDS011;5525;42.648;23.368;2022-09-24T06:00:47;6.32;;;5.50;;
10945;SDS011;5525;42.648;23.368;2022-09-24T06:03:19;6.05;;;5.55;;
10945;SDS011;5525;42.648;23.368;2022-09-24T06:05:47;7.97;;;6.68;;
10945;SDS011;5525;42.648;23.368;2022-09-24T06:08:17;6.05;;;4.55;;
10945;SDS011;5525;42.648;23.368;2022-09-24T06:10:45;6.22;;;4.85;;
10945;SDS011;5525;42.648;23.368;2022-09-24T06:13:22;7.68;;;4.90;;
10945;SDS011;5525;42.648;23.368;2022-09-24T06:15:49;5.40;;;4.78;;
10945;SDS011;5525;42.648;23.368;2022-09-24T06:21:29;5.45;;;4.95;;
10945;SDS011;5525;42.648;23.368;2022-09-24T06:23:58;5.30;;;4.80;;
10945;SDS011;5525;42.648;23.368;2022-09-24T06:26:28;5.65;;;4.82;;
10945;SDS011;5525;42.648;23.368;2022-09-24T06:29:02;5.55;;;5.05;;
10945;SDS011;5525;42.648;23.368;2022-09-24T06:31:31;7.43;;;5.55;;
10945;SDS011;5525;42.648;23.368;2022-09-24T06:33:59;9.68;;;6.60;;
10945;SDS011;5525;42.648;23.368;2022-09-24T06:36:29;6.53;;;5.28;;
10945;SDS011;5525;42.648;23.368;2022-09-24T06:38:57;7.45;;;5.57;;
10945;SDS011;5525;42.648;23.368;2022-09-24T06:41:24;7.32;;;5.78;;
10945;SDS011;5525;42.648;23.368;2022-09-24T06:43:52;5.95;;;5.38;;
10945;SDS011;5525;42.648;23.368;2022-09-24T06:46:19;6.15;;;5.40;;
10945;SDS011;5525;42.648;23.368;2022-09-24T06:48:49;5.95;;;5.40;;
10945;SDS011;5525;42.648;23.368;2022-09-24T06:51:18;7.80;;;5.70;;
10945;SDS011;5525;42.648;23.368;2022-09-24T06:53:49;6.75;;;6.00;;
10945;SDS011;5525;42.648;23.368;2022-09-24T06:56:16;8.40;;;6.30;;
10945;SDS011;5525;42.648;23.368;2022-09-24T06:58:44;11.05;;;6.53;;
10945;SDS011;5525;42.648;23.368;2022-09-24T07:01:11;8.43;;;6.25;;
10945;SDS011;5525;42.648;23.368;2022-09-24T07:03:39;7.80;;;5.60;;
10945;SDS011;5525;42.648;23.368;2022-09-24T07:06:06;7.70;;;5.68;;
10945;SDS011;5525;42.648;23.368;2022-09-24T07:08:33;9.75;;;6.00;;
10945;SDS011;5525;42.648;23.368;2022-09-24T07:11:02;8.77;;;6.18;;
10945;SDS011;5525;42.648;23.368;2022-09-24T07:13:29;7.20;;;6.60;;
10945;SDS011;5525;42.648;23.368;2022-09-24T07:15:56;11.73;;;6.53;;
10945;SDS011;5525;42.648;23.368;2022-09-24T07:18:25;16.63;;;8.07;;
10945;SDS011;5525;42.648;23.368;2022-09-24T07:20:52;7.40;;;5.80;;
10945;SDS011;5525;42.648;23.368;2022-09-24T07:23:20;6.60;;;5.88;;
10945;SDS011;5525;42.648;23.368;2022-09-24T07:25:48;6.57;;;5.82;;
10945;SDS011;5525;42.648;23.368;2022-09-24T07:28:17;7.20;;;6.25;;
10945;SDS011;5525;42.648;23.368;2022-09-24T07:30:44;11.10;;;6.25;;
10945;SDS011;5525;42.648;23.368;2022-09-24T07:33:11;8.82;;;5.35;;
10945;SDS011;5525;42.648;23.368;2022-09-24T07:35:38;7.60;;;5.10;;
10945;SDS011;5525;42.648;23.368;2022-09-24T07:38:06;7.78;;;5.18;;
10945;SDS011;5525;42.648;23.368;2022-09-24T07:40:36;10.10;;;5.72;;
10945;SDS011;5525;42.648;23.368;2022-09-24T07:43:03;10.18;;;4.88;;
10945;SDS011;5525;42.648;23.368;2022-09-24T07:45:37;5.28;;;4.82;;
10945;SDS011;5525;42.648;23.368;2022-09-24T07:48:04;5.90;;;4.55;;
10945;SDS011;5525;42.648;23.368;2022-09-24T07:50:33;4.97;;;4.57;;
10945;SDS011;5525;42.648;23.368;2022-09-24T07:53:04;7.63;;;5.70;;
10945;SDS011;5525;42.648;23.368;2022-09-24T07:55:32;6.57;;;5.47;;
10945;SDS011;5525;42.648;23.368;2022-09-24T07:58:04;13.98;;;6.10;;
10945;SDS011;5525;42.648;23.368;2022-09-24T08:00:32;10.02;;;5.97;;
10945;SDS011;5525;42.648;23.368;2022-09-24T08:03:02;8.18;;;5.82;;
10945;SDS011;5525;42.648;23.368;2022-09-24T08:05:30;5.90;;;5.40;;
10945;SDS011;5525;42.648;23.368;2022-09-24T08:07:57;6.30;;;5.70;;
10945;SDS011;5525;42.648;23.368;2022-09-24T08:10:25;6.00;;;5.20;;
10945;SDS011;5525;42.648;23.368;2022-09-24T08:12:53;7.38;;;5.47;;
10945;SDS011;5525;42.648;23.368;2022-09-24T08:15:21;5.60;;;5.07;;
10945;SDS011;5525;42.648;23.368;2022-09-24T08:17:48;5.78;;;5.28;;
10945;SDS011;5525;42.648;23.368;2022-09-24T08:20:17;8.38;;;5.00;;
10945;SDS011;5525;42.648;23.368;2022-09-24T08:22:45;7.82;;;5.45;;
10945;SDS011;5525;42.648;23.368;2022-09-24T08:25:12;6.82;;;5.30;;
10945;SDS011;5525;42.648;23.368;2022-09-24T08:27:39;6.63;;;4.95;;
10945;SDS011;5525;42.648;23.368;2022-09-24T08:30:07;6.38;;;4.90;;
10945;SDS011;5525;42.648;23.368;2022-09-24T08:32:35;5.13;;;4.63;;
10945;SDS011;5525;42.648;23.368;2022-09-24T08:35:02;6.78;;;5.57;;
10945;SDS011;5525;42.648;23.368;2022-09-24T08:37:34;5.43;;;4.72;;
10945;SDS011;5525;42.648;23.368;2022-09-24T08:40:01;4.82;;;4.43;;
10945;SDS011;5525;42.648;23.368;2022-09-24T08:42:32;5.18;;;4.68;;
10945;SDS011;5525;42.648;23.368;2022-09-24T08:45:05;5.13;;;4.70;;
10945;SDS011;5525;42.648;23.368;2022-09-24T08:47:53;6.68;;;5.18;;
10945;SDS011;5525;42.648;23.368;2022-09-24T08:50:24;5.50;;;5.00;;
10945;SDS011;5525;42.648;23.368;2022-09-24T08:53:00;6.05;;;4.70;;
10945;SDS011;5525;42.648;23.368;2022-09-24T08:55:33;7.85;;;5.32;;
10945;SDS011;5525;42.648;23.368;2022-09-24T08:58:11;5.60;;;5.05;;
10945;SDS011;5525;42.648;23.368;2022-09-24T09:00:51;9.68;;;5.07;;
10945;SDS011;5525;42.648;23.368;2022-09-24T09:03:24;5.82;;;5.13;;
10945;SDS011;5525;42.648;23.368;2022-09-24T09:06:01;5.80;;;5.10;;
10945;SDS011;5525;42.648;23.368;2022-09-24T09:08:36;5.70;;;5.10;;
10945;SDS011;5525;42.648;23.368;2022-09-24T09:11:14;5.55;;;4.95;;
10945;SDS011;5525;42.648;23.368;2022-09-24T09:13:48;6.60;;;4.80;;
10945;SDS011;5525;42.648;23.368;2022-09-24T09:16:20;5.18;;;4.68;;
10945;SDS011;5525;42.648;23.368;2022-09-24T09:18:52;6.38;;;4.38;;
10945;SDS011;5525;42.648;23.368;2022-09-24T09:21:26;4.50;;;4.10;;
10945;SDS011;5525;42.648;23.368;2022-09-24T09:23:58;4.68;;;4.28;;
10945;SDS011;5525;42.648;23.368;2022-09-24T09:26:29;5.55;;;4.50;;
10945;SDS011;5525;42.648;23.368;2022-09-24T09:28:57;8.68;;;4.22;;
10945;SDS011;5525;42.648;23.368;2022-09-24T09:31:28;6.63;;;4.30;;
10945;SDS011;5525;42.648;23.368;2022-09-24T09:34:09;5.22;;;3.60;;
10945;SDS011;5525;42.648;23.368;2022-09-24T09:37:02;5.15;;;3.63;;
10945;SDS011;5525;42.648;23.368;2022-09-24T09:39:41;7.30;;;3.90;;
10945;SDS011;5525;42.648;23.368;2022-09-24T09:42:16;4.32;;;4.03;;
10945;SDS011;5525;42.648;23.368;2022-09-24T09:44:54;7.40;;;3.90;;
10945;SDS011;5525;42.648;23.368;2022-09-24T09:47:25;6.53;;;4.20;;
10945;SDS011;5525;42.648;23.368;2022-09-24T09:50:02;4.78;;;4.03;;
10945;SDS011;5525;42.648;23.368;2022-09-24T09:52:32;5.28;;;4.50;;
10945;SDS011;5525;42.648;23.368;2022-09-24T09:55:06;4.53;;;4.15;;
10945;SDS011;5525;42.648;23.368;2022-09-24T09:57:35;6.25;;;4.78;;
10945;SDS011;5525;42.648;23.368;2022-09-24T10:00:15;5.40;;;4.72;;
10945;SDS011;5525;42.648;23.368;2022-09-24T10:02:51;6.88;;;5.97;;
10945;SDS011;5525;42.648;23.368;2022-09-24T10:05:20;6.43;;;5.00;;
10945;SDS011;5525;42.648;23.368;2022-09-24T10:07:53;5.60;;;4.97;;
10945;SDS011;5525;42.648;23.368;2022-09-24T10:10:32;6.55;;;4.72;;
10945;SDS011;5525;42.648;23.368;2022-09-24T10:13:06;5.32;;;4.82;;
10945;SDS011;5525;42.648;23.368;2022-09-24T10:15:34;6.03;;;4.90;;
10945;SDS011;5525;42.648;23.368;2022-09-24T10:18:13;7.00;;;6.30;;
10945;SDS011;5525;42.648;23.368;2022-09-24T10:20:44;5.72;;;5.22;;
10945;SDS011;5525;42.648;23.368;2022-09-24T10:23:16;5.82;;;4.43;;
10945;SDS011;5525;42.648;23.368;2022-09-24T10:25:50;5.43;;;4.63;;
10945;SDS011;5525;42.648;23.368;2022-09-24T10:28:24;4.25;;;3.75;;
10945;SDS011;5525;42.648;23.368;2022-09-24T10:31:11;5.47;;;3.70;;
10945;SDS011;5525;42.648;23.368;2022-09-24T10:33:42;4.45;;;4.05;;
10945;SDS011;5525;42.648;23.368;2022-09-24T10:36:13;5.80;;;4.47;;
10945;SDS011;5525;42.648;23.368;2022-09-24T10:39:00;4.20;;;3.80;;
10945;SDS011;5525;42.648;23.368;2022-09-24T10:41:31;6.13;;;4.13;;
10945;SDS011;5525;42.648;23.368;2022-09-24T10:44:00;5.82;;;4.57;;
10945;SDS011;5525;42.648;23.368;2022-09-24T10:46:57;6.35;;;4.40;;
10945;SDS011;5525;42.648;23.368;2022-09-24T10:49:49;6.07;;;4.50;;
10945;SDS011;5525;42.648;23.368;2022-09-24T10:52:35;5.45;;;4.65;;
10945;SDS011;5525;42.648;23.368;2022-09-24T10:55:12;4.20;;;3.88;;
10945;SDS011;5525;42.648;23.368;2022-09-24T10:57:56;5.35;;;4.85;;
10945;SDS011;5525;42.648;23.368;2022-09-24T11:00:31;4.70;;;4.30;;
10945;SDS011;5525;42.648;23.368;2022-09-24T11:03:13;4.80;;;4.30;;
10945;SDS011;5525;42.648;23.368;2022-09-24T11:05:55;6.28;;;3.75;;
10945;SDS011;5525;42.648;23.368;2022-09-24T11:08:30;6.07;;;3.35;;
10945;SDS011;5525;42.648;23.368;2022-09-24T11:11:16;5.15;;;3.53;;
10945;SDS011;5525;42.648;23.368;2022-09-24T11:13:56;4.60;;;4.20;;
10945;SDS011;5525;42.648;23.368;2022-09-24T11:16:42;4.63;;;3.90;;
10945;SDS011;5525;42.648;23.368;2022-09-24T11:19:27;4.82;;;4.25;;
10945;SDS011;5525;42.648;23.368;2022-09-24T11:22:13;3.88;;;3.58;;
10945;SDS011;5525;42.648;23.368;2022-09-24T11:25:06;4.00;;;3.47;;
10945;SDS011;5525;42.648;23.368;2022-09-24T11:27:48;6.28;;;3.42;;
10945;SDS011;5525;42.648;23.368;2022-09-24T11:30:21;3.63;;;3.33;;
10945;SDS011;5525;42.648;23.368;2022-09-24T11:32:55;3.53;;;2.67;;
10945;SDS011;5525;42.648;23.368;2022-09-24T11:35:39;2.50;;;2.28;;
10945;SDS011;5525;42.648;23.368;2022-09-24T11:38:22;4.35;;;2.47;;
10945;SDS011;5525;42.648;23.368;2022-09-24T11:41:05;4.65;;;2.60;;
10945;SDS011;5525;42.648;23.368;2022-09-24T11:43:58;3.78;;;2.95;;
10945;SDS011;5525;42.648;23.368;2022-09-24T11:46:46;2.85;;;2.55;;
10945;SDS011;5525;42.648;23.368;2022-09-24T11:49:34;4.32;;;3.00;;
10945;SDS011;5525;42.648;23.368;2022-09-24T11:52:09;2.78;;;2.53;;
10945;SDS011;5525;42.648;23.368;2022-09-24T11:54:42;3.42;;;2.63;;
10945;SDS011;5525;42.648;23.368;2022-09-24T11:57:18;2.42;;;2.22;;
10945;SDS011;5525;42.648;23.368;2022-09-24T11:59:48;3.85;;;2.50;;
10945;SDS011;5525;42.648;23.368;2022-09-24T12:02:23;5.57;;;2.30;;
10945;SDS011;5525;42.648;23.368;2022-09-24T12:04:57;2.78;;;1.95;;
10945;SDS011;5525;42.648;23.368;2022-09-24T12:07:30;3.10;;;2.40;;
10945;SDS011;5525;42.648;23.368;2022-09-24T12:10:03;2.85;;;2.15;;
10945;SDS011;5525;42.648;23.368;2022-09-24T12:12:44;4.60;;;2.20;;
10945;SDS011;5525;42.648;23.368;2022-09-24T12:15:15;3.70;;;2.17;;
10945;SDS011;5525;42.648;23.368;2022-09-24T12:17:47;3.72;;;2.10;;
10945;SDS011;5525;42.648;23.368;2022-09-24T12:20:19;3.60;;;2.22;;
10945;SDS011;5525;42.648;23.368;2022-09-24T12:22:49;2.55;;;2.10;;
10945;SDS011;5525;42.648;23.368;2022-09-24T12:25:24;3.88;;;2.30;;
10945;SDS011;5525;42.648;23.368;2022-09-24T12:27:54;2.88;;;2.30;;
10945;SDS011;5525;42.648;23.368;2022-09-24T12:30:27;3.22;;;2.30;;
10945;SDS011;5525;42.648;23.368;2022-09-24T12:33:18;4.60;;;2.65;;
10945;SDS011;5525;42.648;23.368;2022-09-24T12:35:55;3.15;;;2.20;;
10945;SDS011;5525;42.648;23.368;2022-09-24T12:38:30;2.50;;;2.30;;
10945;SDS011;5525;42.648;23.368;2022-09-24T12:41:12;3.55;;;2.42;;
10945;SDS011;5525;42.648;23.368;2022-09-24T12:43:46;2.85;;;2.65;;
10945;SDS011;5525;42.648;23.368;2022-09-24T12:46:17;2.95;;;2.40;;
10945;SDS011;5525;42.648;23.368;2022-09-24T12:48:48;2.95;;;2.33;;
10945;SDS011;5525;42.648;23.368;2022-09-24T12:51:16;2.75;;;2.50;;
10945;SDS011;5525;42.648;23.368;2022-09-24T12:53:54;2.72;;;1.90;;
10945;SDS011;5525;42.648;23.368;2022-09-24T12:56:24;3.35;;;2.17;;
10945;SDS011;5525;42.648;23.368;2022-09-24T12:58:55;3.33;;;1.92;;
10945;SDS011;5525;42.648;23.368;2022-09-24T13:01:26;2.13;;;1.92;;
10945;SDS011;5525;42.648;23.368;2022-09-24T13:06:54;4.45;;;2.70;;
10945;SDS011;5525;42.648;23.368;2022-09-24T13:09:23;2.50;;;2.30;;
10945;SDS011;5525;42.648;23.368;2022-09-24T13:12:05;2.88;;;2.35;;
10945;SDS011;5525;42.648;23.368;2022-09-24T13:14:47;2.60;;;2.40;;
10945;SDS011;5525;42.648;23.368;2022-09-24T13:17:19;6.32;;;2.38;;
10945;SDS011;5525;42.648;23.368;2022-09-24T13:19:47;2.38;;;2.17;;
10945;SDS011;5525;42.648;23.368;2022-09-24T13:22:20;2.13;;;2.03;;
10945;SDS011;5525;42.648;23.368;2022-09-24T13:24:52;3.67;;;2.28;;
10945;SDS011;5525;42.648;23.368;2022-09-24T13:27:35;2.63;;;2.00;;
10945;SDS011;5525;42.648;23.368;2022-09-24T13:30:05;3.47;;;2.25;;
10945;SDS011;5525;42.648;23.368;2022-09-24T13:32:44;2.17;;;1.98;;
10945;SDS011;5525;42.648;23.368;2022-09-24T13:35:18;3.55;;;2.20;;
10945;SDS011;5525;42.648;23.368;2022-09-24T13:37:53;2.40;;;2.20;;
10945;SDS011;5525;42.648;23.368;2022-09-24T13:40:30;2.30;;;2.10;;
10945;SDS011;5525;42.648;23.368;2022-09-24T13:43:03;3.50;;;2.20;;
10945;SDS011;5525;42.648;23.368;2022-09-24T13:45:33;3.97;;;2.10;;
10945;SDS011;5525;42.648;23.368;2022-09-24T13:48:12;2.33;;;2.13;;
10945;SDS011;5525;42.648;23.368;2022-09-24T13:50:52;3.08;;;2.30;;
10945;SDS011;5525;42.648;23.368;2022-09-24T13:53:21;2.45;;;2.10;;
10945;SDS011;5525;42.648;23.368;2022-09-24T13:55:56;2.38;;;2.17;;
10945;SDS011;5525;42.648;23.368;2022-09-24T13:58:26;2.53;;;2.03;;
10945;SDS011;5525;42.648;23.368;2022-09-24T14:00:54;2.97;;;2.00;;
10945;SDS011;5525;42.648;23.368;2022-09-24T14:03:23;1.95;;;1.80;;
10945;SDS011;5525;42.648;23.368;2022-09-24T14:05:53;2.83;;;2.33;;
10945;SDS011;5525;42.648;23.368;2022-09-24T14:08:22;2.35;;;2.15;;
10945;SDS011;5525;42.648;23.368;2022-09-24T14:10:51;6.32;;;2.40;;
10945;SDS011;5525;42.648;23.368;2022-09-24T14:13:28;2.63;;;2.28;;
10945;SDS011;5525;42.648;23.368;2022-09-24T14:15:58;2.28;;;2.08;;
10945;SDS011;5525;42.648;23.368;2022-09-24T14:18:32;2.80;;;2.30;;
10945;SDS011;5525;42.648;23.368;2022-09-24T14:21:00;2.50;;;2.30;;
10945;SDS011;5525;42.648;23.368;2022-09-24T14:23:35;3.97;;;2.58;;
10945;SDS011;5525;42.648;23.368;2022-09-24T14:26:06;2.70;;;2.38;;
10945;SDS011;5525;42.648;23.368;2022-09-24T14:28:37;2.75;;;2.33;;
10945;SDS011;5525;42.648;23.368;2022-09-24T14:31:05;2.40;;;2.10;;
10945;SDS011;5525;42.648;23.368;2022-09-24T14:33:35;2.50;;;2.30;;
10945;SDS011;5525;42.648;23.368;2022-09-24T14:36:08;2.30;;;2.10;;
10945;SDS011;5525;42.648;23.368;2022-09-24T14:38:42;2.05;;;1.95;;
10945;SDS011;5525;42.648;23.368;2022-09-24T14:41:14;2.30;;;2.10;;
10945;SDS011;5525;42.648;23.368;2022-09-24T14:43:45;3.08;;;2.10;;
10945;SDS011;5525;42.648;23.368;2022-09-24T14:46:16;3.90;;;2.25;;
10945;SDS011;5525;42.648;23.368;2022-09-24T14:48:46;2.85;;;2.25;;
10945;SDS011;5525;42.648;23.368;2022-09-24T14:51:25;2.35;;;2.15;;
10945;SDS011;5525;42.648;23.368;2022-09-24T14:53:56;5.32;;;2.30;;
10945;SDS011;5525;42.648;23.368;2022-09-24T14:56:26;2.30;;;2.10;;
10945;SDS011;5525;42.648;23.368;2022-09-24T14:58:54;3.22;;;2.60;;
10945;SDS011;5525;42.648;23.368;2022-09-24T15:01:22;3.75;;;2.47;;
10945;SDS011;5525;42.648;23.368;2022-09-24T15:03:55;4.30;;;2.72;;
10945;SDS011;5525;42.648;23.368;2022-09-24T15:06:27;3.10;;;2.60;;
10945;SDS011;5525;42.648;23.368;2022-09-24T15:09:00;2.50;;;2.30;;
10945;SDS011;5525;42.648;23.368;2022-09-24T15:11:29;2.47;;;2.28;;
10945;SDS011;5525;42.648;23.368;2022-09-24T15:13:58;4.25;;;2.70;;
10945;SDS011;5525;42.648;23.368;2022-09-24T15:16:28;3.40;;;2.70;;
10945;SDS011;5525;42.648;23.368;2022-09-24T15:19:00;4.18;;;2.88;;
10945;SDS011;5525;42.648;23.368;2022-09-24T15:21:40;3.75;;;2.97;;
10945;SDS011;5525;42.648;23.368;2022-09-24T15:24:07;6.22;;;3.28;;
10945;SDS011;5525;42.648;23.368;2022-09-24T15:26:35;3.50;;;2.92;;
10945;SDS011;5525;42.648;23.368;2022-09-24T15:29:05;5.55;;;3.20;;